createdAt,value
2023-09-14T00:00:15.506Z,44.1
2023-09-14T00:03:16.511Z,43.9
2023-09-14T00:12:19.584Z,43.5
2023-09-14T00:15:20.611Z,43.3
2023-09-14T00:18:21.635Z,43.8
2023-09-14T00:21:22.648Z,43.1
2023-09-14T00:24:23.668Z,43.3
2023-09-14T00:25:40.065Z,43.1
2023-09-14T00:27:24.681Z,42.8
2023-09-14T00:30:25.725Z,43.3
2023-09-14T00:36:27.767Z,43
2023-09-14T00:39:28.790Z,43
2023-09-14T00:42:29.821Z,43
2023-09-14T00:45:30.832Z,43
2023-09-14T00:48:31.846Z,42.2
2023-09-14T00:51:32.884Z,42.5
2023-09-14T00:54:33.898Z,43.1
2023-09-14T00:55:50.316Z,43
2023-09-14T01:09:39.023Z,43.1
2023-09-14T01:12:40.034Z,44.9
2023-09-14T01:15:41.048Z,43.1
2023-09-14T01:18:42.076Z,42.7
2023-09-14T01:21:43.096Z,42.3
2023-09-14T01:27:45.148Z,42.8
2023-09-14T01:30:46.182Z,42.3
2023-09-14T01:33:47.194Z,43.1
2023-09-14T01:39:49.222Z,42.5
2023-09-14T01:42:50.257Z,42.8
2023-09-14T01:48:52.292Z,43.1
2023-09-14T01:51:53.327Z,43.6
2023-09-14T01:56:10.813Z,43.3
2023-09-14T01:57:55.375Z,44.1
2023-09-14T02:03:57.406Z,43.3
2023-09-14T02:06:58.435Z,43.6
2023-09-14T02:16:01.494Z,44.3
2023-09-14T02:19:02.532Z,43.3
2023-09-14T02:22:03.551Z,43.8
2023-09-14T02:25:04.583Z,57.6
2023-09-14T02:34:07.631Z,47
2023-09-14T02:40:09.697Z,43.3
2023-09-14T02:43:10.703Z,45.1
2023-09-14T02:46:11.746Z,44.3
2023-09-14T02:49:12.759Z,44.9
2023-09-14T02:52:13.795Z,47.2
2023-09-14T02:55:14.788Z,45.6
2023-09-14T03:01:16.858Z,46
2023-09-14T03:04:17.890Z,46.5
2023-09-14T03:10:19.898Z,46.4
2023-09-14T03:13:20.946Z,47.6
2023-09-14T03:16:21.962Z,48.6
2023-09-14T03:19:23.001Z,46.7
2023-09-14T03:22:24.010Z,48.3
2023-09-14T03:28:26.057Z,47
2023-09-14T03:40:30.151Z,47.3
2023-09-14T03:43:31.176Z,49.7
2023-09-14T03:46:32.198Z,46
2023-09-14T03:55:35.272Z,47.3
2023-09-14T03:56:51.787Z,45.7
2023-09-14T04:04:38.306Z,46.8
2023-09-14T04:07:39.334Z,56.8
2023-09-14T04:10:40.378Z,47.2
2023-09-14T04:13:41.402Z,47.5
2023-09-14T04:16:42.424Z,48
2023-09-14T04:19:43.424Z,49.1
2023-09-14T04:22:44.448Z,47.2
2023-09-14T04:25:45.496Z,48
2023-09-14T04:27:02.042Z,47.6
2023-09-14T04:28:46.490Z,50.2
2023-09-14T04:31:47.515Z,50.7
2023-09-14T04:34:48.540Z,47.8
2023-09-14T04:37:49.558Z,48.8
2023-09-14T04:40:50.608Z,48.5
2023-09-14T04:43:51.632Z,46.7
2023-09-14T04:49:53.688Z,47.2
2023-09-14T04:52:54.682Z,48.8
2023-09-14T04:57:12.258Z,47.8
2023-09-14T04:58:56.722Z,47.6
2023-09-14T05:04:58.791Z,48.6
2023-09-14T05:07:59.785Z,49.7
2023-09-14T05:11:00.812Z,46.4
2023-09-14T05:14:01.842Z,49.7
2023-09-14T05:17:02.861Z,47.8
2023-09-14T05:26:05.934Z,47.3
2023-09-14T05:27:22.535Z,48.3
2023-09-14T05:29:06.947Z,46.8
2023-09-14T05:32:07.976Z,46.2
2023-09-14T05:35:09.010Z,48.5
2023-09-14T05:38:10.019Z,46.8
2023-09-14T05:41:11.045Z,48.6
2023-09-14T05:44:12.084Z,49.3
2023-09-14T05:47:13.086Z,46.8
2023-09-14T05:53:15.162Z,46
2023-09-14T05:56:16.181Z,44.4
2023-09-14T05:57:32.754Z,47.5
2023-09-14T05:59:17.185Z,45.4
2023-09-14T06:02:18.233Z,48.8
2023-09-14T06:08:20.275Z,48.5
2023-09-14T06:11:21.303Z,48.5
2023-09-14T06:14:22.320Z,46.4
2023-09-14T06:17:23.340Z,46
2023-09-14T06:20:24.372Z,48.1
2023-09-14T06:23:25.358Z,46
2023-09-14T06:26:26.393Z,48
2023-09-14T06:29:27.444Z,47.5
2023-09-14T06:32:28.425Z,49.3
2023-09-14T06:35:29.457Z,49.6
2023-09-14T06:38:30.471Z,47.2
2023-09-14T06:41:31.509Z,47.3
2023-09-14T06:47:33.542Z,47.2
2023-09-14T06:50:34.598Z,47.2
2023-09-14T06:53:35.594Z,48
2023-09-14T06:56:36.614Z,48.3
2023-09-14T06:59:37.672Z,44.9
2023-09-14T07:02:38.663Z,47.5
2023-09-14T07:05:39.719Z,44.1
2023-09-14T07:14:42.749Z,45.2
2023-09-14T07:20:44.801Z,45.7
2023-09-14T07:23:45.812Z,45.7
2023-09-14T07:26:46.836Z,45.6
2023-09-14T07:29:47.871Z,45.7
2023-09-14T07:32:48.919Z,45.2
2023-09-14T07:41:51.985Z,48.9
2023-09-14T07:47:53.994Z,44.1
2023-09-14T07:50:55.046Z,46
2023-09-14T07:53:56.072Z,48.3
2023-09-14T07:58:13.731Z,47.2
2023-09-14T07:59:58.117Z,43.5
2023-09-14T08:02:59.106Z,45.2
2023-09-14T08:06:00.136Z,49.1
2023-09-14T08:09:01.196Z,43.3
2023-09-14T08:12:02.183Z,43.1
2023-09-14T08:18:04.255Z,43.1
2023-09-14T08:21:05.285Z,44.7
2023-09-14T08:24:06.272Z,43.3
2023-09-14T08:27:07.327Z,45.1
2023-09-14T08:30:08.314Z,46.5
2023-09-14T08:36:10.411Z,46.4
2023-09-14T08:39:11.398Z,44.3
2023-09-14T08:42:12.409Z,43.1
2023-09-14T08:45:13.469Z,44.3
2023-09-14T08:48:14.503Z,47.3
2023-09-14T08:54:16.532Z,47
2023-09-14T08:57:17.523Z,41.7
2023-09-14T09:03:19.575Z,46.8
2023-09-14T09:06:20.610Z,43.9
2023-09-14T09:12:22.677Z,45.9
2023-09-14T09:15:23.665Z,40.4
2023-09-14T09:18:24.718Z,41.2
2023-09-14T09:21:25.755Z,43.3
2023-09-14T09:24:26.766Z,42.2
2023-09-14T09:28:44.505Z,43.3
2023-09-14T09:30:28.807Z,42.3
2023-09-14T09:33:29.801Z,41.8
2023-09-14T09:36:30.830Z,45.1
2023-09-14T09:39:31.888Z,42.2
2023-09-14T09:42:32.903Z,41
2023-09-14T09:45:33.925Z,43
2023-09-14T09:48:34.959Z,41.4
2023-09-14T09:51:35.977Z,46
2023-09-14T09:54:36.973Z,43.3
2023-09-14T09:57:37.984Z,42.2
2023-09-14T09:58:54.755Z,41
2023-09-14T10:03:40.043Z,52.8
2023-09-14T10:06:41.056Z,44.1
2023-09-14T10:09:42.078Z,41.5
2023-09-14T10:12:43.094Z,44.9
2023-09-14T10:15:44.135Z,42.7
2023-09-14T10:18:45.178Z,40.9
2023-09-14T10:21:46.179Z,44.1
2023-09-14T10:24:47.224Z,42
2023-09-14T10:27:48.249Z,44.7
2023-09-14T10:29:05.008Z,42
2023-09-14T10:30:49.233Z,41.5
2023-09-14T10:33:50.308Z,40.9
2023-09-14T10:36:51.281Z,41.4
2023-09-14T10:39:52.313Z,41
2023-09-14T10:42:53.365Z,42.3
2023-09-14T10:48:55.410Z,40.7
2023-09-14T10:51:56.399Z,42.5
2023-09-14T10:54:57.469Z,45.1
2023-09-14T10:57:58.452Z,42.3
2023-09-14T11:04:00.491Z,44.1
2023-09-14T11:07:01.519Z,42.3
2023-09-14T11:10:02.584Z,42.3
2023-09-14T11:13:03.603Z,42.7
2023-09-14T11:19:05.612Z,41.5
2023-09-14T11:22:06.641Z,44.1
2023-09-14T11:28:08.719Z,43.9
2023-09-14T11:29:25.472Z,45.6
2023-09-14T11:31:09.752Z,59.1
2023-09-14T11:37:11.796Z,41.4
2023-09-14T11:43:13.833Z,40.6
2023-09-14T11:46:14.870Z,42.7
2023-09-14T11:49:15.889Z,42.5
2023-09-14T11:52:16.859Z,41.2
2023-09-14T11:55:17.934Z,43.6
2023-09-14T11:58:18.909Z,41.4
2023-09-14T11:59:35.765Z,39.3
2023-09-14T12:01:19.932Z,39.7
2023-09-14T12:04:21.006Z,47.2
2023-09-14T12:07:21.985Z,43.5
2023-09-14T12:10:22.995Z,53
2023-09-14T12:13:24.029Z,41.8
2023-09-14T12:16:25.043Z,47.8
2023-09-14T12:19:26.066Z,54.6
2023-09-14T12:22:27.093Z,43.5
2023-09-14T12:25:28.123Z,47.2
2023-09-14T12:28:29.151Z,47
2023-09-14T12:29:46.014Z,43.8
2023-09-14T12:34:31.187Z,46.5
2023-09-14T12:37:32.210Z,43.3
2023-09-14T12:40:33.239Z,43.8
2023-09-14T12:43:34.310Z,45.4
2023-09-14T12:55:38.344Z,45.4
2023-09-14T12:58:39.407Z,44.9
2023-09-14T12:59:56.250Z,45.2
2023-09-14T13:01:40.386Z,43.8
2023-09-14T13:04:41.412Z,45.2
2023-09-14T13:07:42.470Z,43.3
2023-09-14T13:10:43.456Z,41.5
2023-09-14T13:13:44.489Z,42.3
2023-09-14T13:16:45.544Z,44.9
2023-09-14T13:19:46.564Z,53
2023-09-14T13:25:48.607Z,43.5
2023-09-14T13:28:49.588Z,53.9
2023-09-14T13:31:50.615Z,41.2
2023-09-14T13:34:51.635Z,43.9
2023-09-14T13:37:52.657Z,40.6
2023-09-14T13:40:53.730Z,49.4
2023-09-14T13:43:54.755Z,41
2023-09-14T13:46:55.743Z,42.5
2023-09-14T13:49:56.751Z,42
2023-09-14T13:52:57.782Z,47
2023-09-14T13:55:58.798Z,42.3
2023-09-14T13:58:59.819Z,43.1
2023-09-14T14:02:00.896Z,41.2
2023-09-14T14:08:02.904Z,44.1
2023-09-14T14:14:04.935Z,43.8
2023-09-14T14:17:05.964Z,42
2023-09-14T14:20:06.997Z,43.3
2023-09-14T14:23:08.002Z,41.7
2023-09-14T14:26:09.025Z,44.4
2023-09-14T14:29:10.099Z,41.8
2023-09-14T14:32:11.086Z,42.3
2023-09-14T14:35:12.144Z,44.9
2023-09-14T14:38:13.186Z,42.5
2023-09-14T14:41:14.199Z,44.7
2023-09-14T14:44:15.229Z,59.6
2023-09-14T14:47:16.252Z,43.6
2023-09-14T14:50:17.213Z,45.1
2023-09-14T14:53:18.279Z,44.7
2023-09-14T14:59:20.338Z,45.7
2023-09-14T15:02:21.351Z,43.9
2023-09-14T15:08:23.410Z,56.2
2023-09-14T15:11:24.370Z,54.3
2023-09-14T15:14:25.444Z,40.9
2023-09-14T15:17:26.479Z,51.7
2023-09-14T15:20:27.490Z,50.4
2023-09-14T15:23:28.511Z,54.1
2023-09-14T15:26:29.482Z,52.2
2023-09-14T15:29:30.566Z,51.5
2023-09-14T15:32:31.545Z,51
2023-09-14T15:41:34.615Z,53
2023-09-14T15:44:35.686Z,53.4
2023-09-14T15:47:36.660Z,58.6
2023-09-14T15:50:37.669Z,53.8
2023-09-14T15:53:38.686Z,57.6
2023-09-14T15:56:39.759Z,57.3
2023-09-14T15:59:40.799Z,56.2
2023-09-14T16:05:42.796Z,48
2023-09-14T16:08:43.862Z,49.1
2023-09-14T16:11:44.824Z,48
2023-09-14T16:14:45.900Z,47
2023-09-14T16:17:46.938Z,46.7
2023-09-14T16:23:48.921Z,50.1
2023-09-14T16:32:52.164Z,49.6
2023-09-14T16:36:09.461Z,49.6
2023-09-14T16:39:10.427Z,46.8
2023-09-14T16:45:12.469Z,46.8
2023-09-14T16:48:13.494Z,48
2023-09-14T16:54:15.592Z,48.3
2023-09-14T16:57:16.554Z,51.4
2023-09-14T17:00:17.642Z,48.1
2023-09-14T17:01:33.608Z,49.1
2023-09-14T17:03:18.658Z,51
2023-09-14T17:06:19.629Z,47.5
2023-09-14T17:09:20.703Z,47.3
2023-09-14T17:12:21.687Z,47.6
2023-09-14T17:15:22.694Z,49.6
2023-09-14T17:21:24.809Z,54.1
2023-09-14T17:24:25.825Z,50.2
2023-09-14T17:27:26.837Z,52.8
2023-09-14T17:30:27.820Z,47.3
2023-09-14T17:36:29.863Z,47.3
2023-09-14T17:39:30.891Z,47.6
2023-09-14T17:42:31.910Z,48.9
2023-09-14T17:45:32.930Z,45.2
2023-09-14T17:48:33.967Z,47.2
2023-09-14T17:51:34.975Z,49.6
2023-09-14T17:54:35.990Z,49.7
2023-09-14T17:57:37.036Z,48.1
2023-09-14T18:00:38.037Z,48.6
2023-09-14T18:01:54.080Z,48.9
2023-09-14T18:03:39.083Z,48.5
2023-09-14T18:06:40.103Z,51
2023-09-14T18:09:41.112Z,47.2
2023-09-14T18:12:42.139Z,49.3
2023-09-14T18:18:44.184Z,49.1
2023-09-14T18:21:45.204Z,51.8
2023-09-14T18:24:46.232Z,48.1
2023-09-14T18:27:47.256Z,48.9
2023-09-14T18:32:04.480Z,51.5
2023-09-14T18:33:49.307Z,50.7
2023-09-14T18:39:18.569Z,51.5
2023-09-14T18:42:19.611Z,50.9
2023-09-14T18:45:20.624Z,51.8
2023-09-14T18:48:21.643Z,49.3
2023-09-14T18:51:22.669Z,51
2023-09-14T18:54:23.676Z,51.4
2023-09-14T18:57:24.706Z,49.1
2023-09-14T19:00:25.723Z,48.9
2023-09-14T19:02:14.718Z,51.5
2023-09-14T19:03:31.072Z,51
2023-09-14T19:09:33.111Z,50.5
2023-09-14T19:12:34.158Z,52.8
2023-09-14T19:21:37.212Z,52.2
2023-09-14T19:27:39.251Z,54.1
2023-09-14T19:30:40.279Z,54.3
2023-09-14T19:33:41.290Z,52.6
2023-09-14T19:36:42.322Z,52.6
2023-09-14T19:39:43.348Z,52.5
2023-09-14T19:42:44.360Z,52.2
2023-09-14T19:45:45.395Z,54.6
2023-09-14T19:48:46.403Z,54.3
2023-09-14T19:54:48.445Z,55.9
2023-09-14T19:57:49.477Z,54.3
2023-09-14T20:00:50.510Z,50.5
2023-09-14T20:03:51.517Z,53
2023-09-14T20:06:52.538Z,55.5
2023-09-14T20:15:55.607Z,52.2
2023-09-14T20:18:56.648Z,53.4
2023-09-14T20:24:58.685Z,52.8
2023-09-14T20:27:59.712Z,53.4
2023-09-14T20:32:45.449Z,55.4
2023-09-14T20:34:01.764Z,54.4
2023-09-14T20:37:02.772Z,54.9
2023-09-14T20:40:03.816Z,52.3
2023-09-14T20:43:04.831Z,52.5
2023-09-14T20:46:05.846Z,53.1
2023-09-14T20:49:06.866Z,53.4
2023-09-14T20:52:07.919Z,52.3
2023-09-14T20:55:08.925Z,55.2
2023-09-14T20:58:09.937Z,48.9
2023-09-14T21:01:10.963Z,55.1
2023-09-14T21:07:13.092Z,51.8
2023-09-14T21:10:14.106Z,51.2
2023-09-14T21:13:15.127Z,51.8
2023-09-14T21:16:16.143Z,52.3
2023-09-14T21:19:17.174Z,50.2
2023-09-14T21:25:19.223Z,54.4
2023-09-14T21:31:21.270Z,48.8
2023-09-14T21:33:05.953Z,48.6
2023-09-14T21:34:22.287Z,51
2023-09-14T21:37:23.333Z,47.2
2023-09-14T21:40:24.335Z,49.7
2023-09-14T21:43:25.374Z,53
2023-09-14T21:46:26.415Z,51.4
2023-09-14T21:49:27.420Z,53.3
2023-09-14T21:52:28.427Z,49.3
2023-09-14T21:55:29.475Z,51
2023-09-14T21:58:30.480Z,56.8
2023-09-14T22:04:32.547Z,55.1
2023-09-14T22:07:33.582Z,50.7
2023-09-14T22:10:34.571Z,49.1
2023-09-14T22:13:35.623Z,48.3
2023-09-14T22:22:38.694Z,52.3
2023-09-14T22:28:40.733Z,47.6
2023-09-14T22:31:41.767Z,46.8
2023-09-14T22:33:26.485Z,51
2023-09-14T22:34:42.790Z,49.1
2023-09-14T22:37:43.816Z,47
2023-09-14T22:40:44.832Z,48.5
2023-09-14T22:43:45.873Z,47.6
2023-09-14T22:49:47.902Z,46.5
2023-09-14T22:55:49.952Z,50.9
2023-09-14T22:58:50.977Z,50.7
2023-09-14T23:03:36.741Z,50.4
2023-09-14T23:07:54.061Z,51.7
2023-09-14T23:10:55.069Z,52
2023-09-14T23:13:56.093Z,45.7
2023-09-14T23:22:59.176Z,50.7
2023-09-14T23:26:00.206Z,49.1
2023-09-14T23:29:01.239Z,48.6
2023-09-14T23:33:47.015Z,49.6
2023-09-14T23:35:03.280Z,49.3
2023-09-14T23:41:05.320Z,46
2023-09-14T23:44:06.344Z,46.4
2023-09-14T23:47:07.375Z,48.6
2023-09-14T23:53:09.408Z,49.4
